CNP8 weather

Greenbank Airport
Greenbank, Ontario, Canada

Public forecast

Using degrees Celsius for public forecast. Weather courtesy of forecast.io.

Closest aviation weather report (METAR) to Greenbank Airport

Closest report is Toronto/Oshawa Executive Airport, 13.6 nm (25.3 km) SSE. Retrieved 2019/10/23 07:00 UTC (37 minutes ago):

CYOO 230700Z AUTO 25003KT 210V270 9SM CLR 09/04 A2976 RMK SLP081

Closest aviation forecast (TAF) to Greenbank Airport

Closest forecast is Toronto/Oshawa Executive Airport, 13.6 nm (25.3 km) SSE. Retrieved 2019/10/23 08:00 UTC (0 seconds ago):

TAF CYOO 230738Z 2308/2320 25008KT P6SM SCT025 TEMPO 2308/2315 BKN020 FM231500 25015G25KT P6SM BKN030 RMK FCST BASED ON AUTO OBS NXT FCST BY 231400Z